createdAt,value
2016-11-06T00:00:25.044Z,77
2016-11-06T00:01:28.576Z,77
2016-11-06T00:02:32.119Z,77
2016-11-06T00:03:35.657Z,77
2016-11-06T00:04:39.191Z,77
2016-11-06T00:05:42.724Z,77
2016-11-06T00:06:46.268Z,77
2016-11-06T00:07:49.798Z,77
2016-11-06T00:08:53.194Z,77
2016-11-06T00:09:56.728Z,77
2016-11-06T00:11:00.272Z,77
2016-11-06T00:12:03.805Z,77
2016-11-06T00:13:07.344Z,77
2016-11-06T00:14:10.879Z,77
2016-11-06T00:15:14.419Z,78
2016-11-06T00:16:17.953Z,78
2016-11-06T00:17:21.496Z,77
2016-11-06T00:18:25.035Z,77
2016-11-06T00:19:28.564Z,77
2016-11-06T00:20:32.096Z,77
2016-11-06T00:21:35.638Z,78
2016-11-06T00:22:39.172Z,77
2016-11-06T00:23:42.709Z,77
2016-11-06T00:24:46.243Z,77
2016-11-06T00:25:49.773Z,77
2016-11-06T00:26:53.308Z,77
2016-11-06T00:27:56.846Z,77
2016-11-06T00:29:00.381Z,77
2016-11-06T00:30:03.922Z,77
2016-11-06T00:31:07.461Z,77
2016-11-06T00:32:11.000Z,78
2016-11-06T00:33:14.532Z,77
2016-11-06T00:34:18.071Z,77
2016-11-06T00:35:21.604Z,77
2016-11-06T00:36:25.150Z,77
2016-11-06T00:37:28.676Z,77
2016-11-06T00:38:32.207Z,78
2016-11-06T00:39:35.744Z,78
2016-11-06T00:40:39.281Z,77
2016-11-06T00:41:42.822Z,78
2016-11-06T00:42:46.362Z,78
2016-11-06T00:43:49.897Z,78
2016-11-06T00:44:53.434Z,78
2016-11-06T00:45:56.970Z,78
2016-11-06T00:47:00.510Z,78
2016-11-06T00:48:04.039Z,78
2016-11-06T00:49:07.570Z,78
2016-11-06T00:50:11.099Z,78
2016-11-06T00:51:14.641Z,78
2016-11-06T00:52:18.177Z,78
2016-11-06T00:53:21.720Z,78
2016-11-06T00:54:25.255Z,78
2016-11-06T00:55:28.793Z,78
2016-11-06T00:56:32.328Z,78
2016-11-06T00:57:35.862Z,78
2016-11-06T00:58:39.398Z,78
2016-11-06T00:59:42.927Z,78
2016-11-06T01:00:46.461Z,78
2016-11-06T01:01:50.001Z,78
2016-11-06T01:02:53.537Z,78
2016-11-06T01:03:57.080Z,78
2016-11-06T01:05:00.618Z,78
2016-11-06T01:06:04.152Z,78
2016-11-06T01:07:07.687Z,78
2016-11-06T01:08:11.229Z,78
2016-11-06T01:09:14.757Z,78
2016-11-06T01:10:18.296Z,78
2016-11-06T01:11:21.837Z,78
2016-11-06T01:12:25.386Z,78
2016-11-06T01:13:28.906Z,78
2016-11-06T01:14:32.446Z,78
2016-11-06T01:15:35.986Z,78
2016-11-06T01:16:39.524Z,78
2016-11-06T01:17:43.055Z,78
2016-11-06T01:18:46.597Z,78
2016-11-06T01:19:50.135Z,78
2016-11-06T01:20:53.667Z,78
2016-11-06T01:21:57.213Z,78
2016-11-06T01:23:00.752Z,78
2016-11-06T01:24:07.321Z,78
2016-11-06T01:25:10.848Z,78
2016-11-06T01:26:14.383Z,78
2016-11-06T01:27:17.924Z,78
2016-11-06T01:28:21.461Z,78
2016-11-06T01:29:24.996Z,78
2016-11-06T01:30:28.539Z,78
2016-11-06T01:31:32.080Z,78
2016-11-06T01:32:35.609Z,78
2016-11-06T01:33:39.144Z,78
2016-11-06T01:34:42.675Z,78
2016-11-06T01:35:46.216Z,78
2016-11-06T01:36:49.748Z,78
2016-11-06T01:37:53.284Z,78
2016-11-06T01:38:56.822Z,78
2016-11-06T01:40:00.367Z,78
2016-11-06T01:41:03.900Z,78
2016-11-06T01:42:07.440Z,78
2016-11-06T01:43:10.980Z,78
2016-11-06T01:44:14.512Z,78
2016-11-06T01:45:18.053Z,78
2016-11-06T01:46:21.586Z,78
2016-11-06T01:47:25.128Z,78
2016-11-06T01:48:28.661Z,78
2016-11-06T01:49:32.198Z,78
2016-11-06T01:50:35.738Z,78
2016-11-06T01:51:39.268Z,78
2016-11-06T01:52:42.809Z,78
2016-11-06T01:53:46.342Z,78
2016-11-06T01:54:49.882Z,78
2016-11-06T01:55:53.420Z,79
2016-11-06T01:56:56.957Z,79
2016-11-06T01:58:00.491Z,79
2016-11-06T01:59:04.028Z,79
2016-11-06T02:00:07.564Z,79
2016-11-06T02:01:11.096Z,79
2016-11-06T02:02:14.625Z,79
2016-11-06T02:03:18.163Z,79
2016-11-06T02:04:21.700Z,79
2016-11-06T02:05:25.230Z,79
2016-11-06T02:06:28.765Z,79
2016-11-06T02:07:32.297Z,79
2016-11-06T02:08:35.834Z,79
2016-11-06T02:09:39.367Z,79
2016-11-06T02:10:42.907Z,79
2016-11-06T02:11:46.446Z,79
2016-11-06T02:12:49.987Z,79
2016-11-06T02:13:53.529Z,79
2016-11-06T02:14:57.068Z,79
2016-11-06T02:16:00.604Z,79
2016-11-06T02:17:04.144Z,79
2016-11-06T02:18:07.677Z,79
2016-11-06T02:19:11.305Z,79
2016-11-06T02:20:14.848Z,79
2016-11-06T02:21:18.393Z,79
2016-11-06T02:22:21.935Z,79
2016-11-06T02:23:25.476Z,79
2016-11-06T02:24:29.015Z,79
2016-11-06T02:25:32.560Z,79
2016-11-06T02:26:36.092Z,79
2016-11-06T02:27:39.624Z,79
2016-11-06T02:28:43.171Z,79
2016-11-06T02:29:46.696Z,79
2016-11-06T02:30:50.226Z,79
2016-11-06T02:31:53.762Z,79
2016-11-06T02:32:57.307Z,79
2016-11-06T02:34:00.839Z,79
2016-11-06T02:35:04.378Z,79
2016-11-06T02:36:07.914Z,79
2016-11-06T02:37:11.458Z,79
2016-11-06T02:38:14.986Z,79
2016-11-06T02:39:18.522Z,79
2016-11-06T02:40:22.060Z,79
2016-11-06T02:41:25.599Z,79
2016-11-06T02:42:29.133Z,79
2016-11-06T02:43:32.673Z,79
2016-11-06T02:44:36.211Z,79
2016-11-06T02:45:39.743Z,79
2016-11-06T02:46:43.280Z,79
2016-11-06T02:47:46.810Z,79
2016-11-06T02:48:50.351Z,79
2016-11-06T02:49:53.888Z,79
2016-11-06T02:50:57.423Z,79
2016-11-06T02:52:00.964Z,79
2016-11-06T02:53:04.501Z,79
2016-11-06T02:54:08.043Z,79
2016-11-06T02:55:11.577Z,79
2016-11-06T02:56:15.113Z,79
2016-11-06T02:57:18.652Z,79
2016-11-06T02:58:22.183Z,79
2016-11-06T02:59:25.715Z,79
2016-11-06T03:00:29.254Z,79
2016-11-06T03:01:32.799Z,79
2016-11-06T03:02:36.334Z,79
2016-11-06T03:03:39.866Z,79
2016-11-06T03:04:43.404Z,79
2016-11-06T03:05:46.944Z,79
2016-11-06T03:06:50.482Z,79
2016-11-06T03:07:54.013Z,79
2016-11-06T03:08:57.543Z,79
2016-11-06T03:10:01.083Z,79
2016-11-06T03:11:04.623Z,79
2016-11-06T03:12:08.157Z,79
2016-11-06T03:13:11.696Z,79
2016-11-06T03:14:15.229Z,79
2016-11-06T03:15:18.765Z,79
2016-11-06T03:16:22.297Z,79
2016-11-06T03:17:25.840Z,78
2016-11-06T03:18:29.374Z,78
2016-11-06T03:19:32.913Z,78
2016-11-06T03:20:36.452Z,78
2016-11-06T03:21:39.994Z,78
2016-11-06T03:22:43.529Z,78
2016-11-06T03:23:47.064Z,78
2016-11-06T03:24:50.603Z,78
2016-11-06T03:25:54.146Z,78
2016-11-06T03:26:57.684Z,78
2016-11-06T03:28:01.220Z,78
2016-11-06T03:29:04.758Z,78
2016-11-06T03:30:08.296Z,78
2016-11-06T03:31:11.829Z,78
2016-11-06T03:32:15.363Z,78
2016-11-06T03:33:18.901Z,78
2016-11-06T03:34:22.439Z,78
2016-11-06T03:35:25.972Z,78
2016-11-06T03:36:29.515Z,78
2016-11-06T03:37:33.052Z,78
2016-11-06T03:38:36.597Z,78
2016-11-06T03:39:40.128Z,78
2016-11-06T03:40:43.665Z,78
2016-11-06T03:41:47.202Z,78
2016-11-06T03:42:50.731Z,78
2016-11-06T03:43:54.266Z,78
2016-11-06T03:44:57.804Z,78
2016-11-06T03:46:01.344Z,78
2016-11-06T03:47:04.880Z,78
2016-11-06T03:48:08.409Z,78
2016-11-06T03:49:11.938Z,78
2016-11-06T03:50:15.471Z,78
2016-11-06T03:51:19.005Z,78
2016-11-06T03:52:22.536Z,78
2016-11-06T03:53:26.078Z,78
2016-11-06T03:54:29.608Z,78
2016-11-06T03:55:33.144Z,78
2016-11-06T03:56:36.678Z,78
2016-11-06T03:57:40.211Z,78
2016-11-06T03:58:43.742Z,78
2016-11-06T03:59:47.284Z,78
2016-11-06T04:00:50.826Z,78
2016-11-06T04:01:54.373Z,78
2016-11-06T04:02:57.901Z,78
2016-11-06T04:04:01.441Z,78
2016-11-06T04:05:04.981Z,78
2016-11-06T04:06:08.515Z,78
2016-11-06T04:07:12.043Z,78
2016-11-06T04:08:15.582Z,78
2016-11-06T04:09:19.123Z,78
2016-11-06T04:10:22.651Z,78
2016-11-06T04:11:26.190Z,78
2016-11-06T04:12:29.728Z,78
2016-11-06T04:13:33.266Z,78
2016-11-06T04:14:36.799Z,78
2016-11-06T04:15:40.331Z,78
2016-11-06T04:16:43.868Z,78
2016-11-06T04:17:47.408Z,78
2016-11-06T04:18:50.946Z,78
2016-11-06T04:19:54.491Z,78
2016-11-06T04:20:58.127Z,78
2016-11-06T04:22:01.668Z,78
2016-11-06T04:23:05.201Z,78
2016-11-06T04:24:08.739Z,78
2016-11-06T04:25:12.277Z,78
2016-11-06T04:26:15.813Z,78
2016-11-06T04:27:19.347Z,78
2016-11-06T04:28:22.886Z,78
2016-11-06T04:29:26.424Z,78
2016-11-06T04:30:29.960Z,78
2016-11-06T04:31:33.494Z,78
2016-11-06T04:32:37.030Z,78
2016-11-06T04:33:40.564Z,78
2016-11-06T04:34:44.095Z,78
2016-11-06T04:35:47.630Z,78
2016-11-06T04:36:51.161Z,78
2016-11-06T04:37:54.698Z,78
2016-11-06T04:38:58.231Z,78
2016-11-06T04:40:01.766Z,78
2016-11-06T04:41:05.302Z,78
2016-11-06T04:42:08.833Z,78
2016-11-06T04:43:12.372Z,78
2016-11-06T04:44:15.911Z,78
2016-11-06T04:45:19.450Z,78
2016-11-06T04:46:22.990Z,78
2016-11-06T04:47:26.524Z,78
2016-11-06T04:48:30.060Z,78
2016-11-06T04:49:33.601Z,78
2016-11-06T04:50:37.131Z,78
2016-11-06T04:51:40.660Z,78
2016-11-06T04:52:44.200Z,78
2016-11-06T04:53:47.739Z,78
2016-11-06T04:54:51.279Z,78
2016-11-06T04:55:54.815Z,78
2016-11-06T04:56:58.346Z,78
2016-11-06T04:58:01.885Z,78
2016-11-06T04:59:05.420Z,78
2016-11-06T05:00:08.948Z,78
2016-11-06T05:01:12.486Z,78
2016-11-06T05:02:16.025Z,78
2016-11-06T05:03:19.575Z,78
2016-11-06T05:04:23.101Z,78
2016-11-06T05:05:26.638Z,78
2016-11-06T05:06:30.179Z,78
2016-11-06T05:07:33.713Z,78
2016-11-06T05:08:37.245Z,78
2016-11-06T05:09:40.787Z,78
2016-11-06T05:10:44.327Z,78
2016-11-06T05:11:47.861Z,78
2016-11-06T05:12:51.402Z,78
2016-11-06T05:13:54.940Z,78
2016-11-06T05:14:58.480Z,78
2016-11-06T05:16:02.009Z,78
2016-11-06T05:17:05.545Z,78
2016-11-06T05:18:09.090Z,78
2016-11-06T05:19:12.615Z,78
2016-11-06T05:20:16.148Z,78
2016-11-06T05:21:19.682Z,78
2016-11-06T05:22:23.228Z,78
2016-11-06T05:23:26.755Z,78
2016-11-06T05:24:30.297Z,78
2016-11-06T05:25:33.835Z,78
2016-11-06T05:26:37.381Z,78
2016-11-06T05:27:40.910Z,78
2016-11-06T05:28:44.449Z,78
2016-11-06T05:29:47.987Z,78
2016-11-06T05:30:51.527Z,78
2016-11-06T05:31:55.056Z,78
2016-11-06T05:32:58.593Z,78
2016-11-06T05:34:02.133Z,78
2016-11-06T05:35:05.666Z,78
2016-11-06T05:36:09.206Z,78
2016-11-06T05:37:12.744Z,78
2016-11-06T05:38:16.286Z,78
2016-11-06T05:39:19.820Z,78
2016-11-06T05:40:23.350Z,78
2016-11-06T05:41:26.892Z,78
2016-11-06T05:42:30.430Z,78
2016-11-06T05:43:33.966Z,78
2016-11-06T05:44:37.497Z,78
2016-11-06T05:45:41.034Z,78
2016-11-06T05:46:44.576Z,78
2016-11-06T05:47:48.109Z,78
2016-11-06T05:48:51.643Z,78
2016-11-06T05:49:55.181Z,78
2016-11-06T05:50:58.723Z,78
2016-11-06T05:52:02.257Z,78
2016-11-06T05:53:05.795Z,78
2016-11-06T05:54:09.329Z,78
2016-11-06T05:55:12.871Z,78
2016-11-06T05:56:16.407Z,78
2016-11-06T05:57:19.947Z,78
2016-11-06T05:58:23.486Z,78
2016-11-06T05:59:27.022Z,78
2016-11-06T06:00:30.562Z,78
2016-11-06T06:01:34.132Z,78
2016-11-06T06:02:37.673Z,78
2016-11-06T06:03:41.208Z,78
2016-11-06T06:04:44.746Z,78
2016-11-06T06:05:48.282Z,78
2016-11-06T06:06:51.819Z,78
2016-11-06T06:07:55.350Z,78
2016-11-06T06:08:58.890Z,78
2016-11-06T06:10:02.426Z,78
2016-11-06T06:11:05.966Z,78
2016-11-06T06:12:09.501Z,78
2016-11-06T06:13:13.040Z,78
2016-11-06T06:14:16.581Z,78
2016-11-06T06:15:20.121Z,78
2016-11-06T06:16:23.653Z,78
2016-11-06T06:17:27.194Z,78
2016-11-06T06:18:30.736Z,79
2016-11-06T06:19:34.275Z,79
2016-11-06T06:20:37.803Z,78
2016-11-06T06:21:41.341Z,79
2016-11-06T06:22:44.878Z,79
2016-11-06T06:23:48.420Z,79
2016-11-06T06:24:51.950Z,79
2016-11-06T06:25:55.488Z,79
2016-11-06T06:26:59.026Z,79
2016-11-06T06:28:02.569Z,79
2016-11-06T06:29:06.098Z,79
2016-11-06T06:30:09.637Z,79
2016-11-06T06:31:13.173Z,79
2016-11-06T06:32:16.703Z,79
2016-11-06T06:33:20.242Z,79
2016-11-06T06:34:23.781Z,79
2016-11-06T06:35:27.319Z,79
2016-11-06T06:36:30.849Z,79
2016-11-06T06:37:34.388Z,79
2016-11-06T06:38:37.926Z,79
2016-11-06T06:39:41.468Z,79
2016-11-06T06:40:45.002Z,79
2016-11-06T06:41:48.547Z,79
2016-11-06T06:42:52.088Z,79
2016-11-06T06:43:55.628Z,79
2016-11-06T06:44:59.162Z,79
2016-11-06T06:46:02.707Z,79
2016-11-06T06:47:06.246Z,79
2016-11-06T06:48:09.780Z,79
2016-11-06T06:49:13.322Z,79
2016-11-06T06:50:16.864Z,79
2016-11-06T06:51:20.412Z,79
2016-11-06T06:52:23.942Z,79
2016-11-06T06:53:27.483Z,79
2016-11-06T06:54:31.024Z,79
2016-11-06T06:55:34.559Z,79
2016-11-06T06:56:38.086Z,79
2016-11-06T06:57:41.624Z,79
2016-11-06T06:58:45.162Z,79
2016-11-06T06:59:48.697Z,79
2016-11-06T07:00:52.240Z,79
2016-11-06T07:01:55.779Z,79
2016-11-06T07:02:59.323Z,79
2016-11-06T07:04:02.857Z,79
2016-11-06T07:05:06.404Z,79
2016-11-06T07:06:09.939Z,79
2016-11-06T07:07:13.479Z,79
2016-11-06T07:08:17.013Z,79
2016-11-06T07:09:20.558Z,79
2016-11-06T07:10:24.101Z,79
2016-11-06T07:11:27.636Z,79
2016-11-06T07:12:31.165Z,79
2016-11-06T07:13:34.696Z,79
2016-11-06T07:14:38.235Z,79
2016-11-06T07:15:41.780Z,79
2016-11-06T07:16:45.320Z,79
2016-11-06T07:17:48.859Z,79
2016-11-06T07:18:52.399Z,79
2016-11-06T07:19:55.940Z,79
2016-11-06T07:20:59.475Z,79
2016-11-06T07:22:03.012Z,79
2016-11-06T07:23:06.547Z,79
2016-11-06T07:24:10.083Z,79
2016-11-06T07:25:13.624Z,79
2016-11-06T07:26:17.160Z,79
2016-11-06T07:27:20.693Z,79
2016-11-06T07:28:24.401Z,79
2016-11-06T07:29:27.948Z,79
2016-11-06T07:30:31.487Z,79
2016-11-06T07:31:35.030Z,79
2016-11-06T07:32:38.559Z,79
2016-11-06T07:33:42.095Z,79
2016-11-06T07:34:45.640Z,79
2016-11-06T07:35:49.198Z,79
2016-11-06T07:36:52.762Z,79
2016-11-06T07:37:56.302Z,79
2016-11-06T07:38:59.850Z,79
2016-11-06T07:40:03.392Z,79
2016-11-06T07:41:06.970Z,79
2016-11-06T07:42:10.562Z,79
2016-11-06T07:43:14.103Z,79
2016-11-06T07:44:17.645Z,79
2016-11-06T07:45:21.185Z,79
2016-11-06T07:46:24.770Z,79
2016-11-06T07:47:28.289Z,79
2016-11-06T07:48:31.844Z,79
2016-11-06T07:49:35.370Z,79
2016-11-06T07:50:38.909Z,79
2016-11-06T07:51:42.453Z,79
2016-11-06T07:52:45.990Z,79
2016-11-06T07:53:49.526Z,79
2016-11-06T07:54:53.069Z,79
2016-11-06T07:55:56.610Z,79
2016-11-06T07:57:00.145Z,79
2016-11-06T07:58:03.678Z,79
2016-11-06T07:59:07.219Z,79
2016-11-06T08:00:10.760Z,79
2016-11-06T08:01:14.299Z,79
2016-11-06T08:02:17.842Z,79
2016-11-06T08:03:21.463Z,79
2016-11-06T08:04:24.951Z,79
2016-11-06T08:05:28.482Z,79
2016-11-06T08:06:32.027Z,79
2016-11-06T08:07:35.567Z,79
2016-11-06T08:08:39.165Z,79
2016-11-06T08:09:42.706Z,79
2016-11-06T08:10:46.250Z,79
2016-11-06T08:11:49.790Z,79
2016-11-06T08:12:53.323Z,79
2016-11-06T08:13:56.870Z,79
2016-11-06T08:15:00.406Z,79
2016-11-06T08:16:03.969Z,79
2016-11-06T08:17:07.485Z,79
2016-11-06T08:18:11.039Z,79
2016-11-06T08:19:14.580Z,79
2016-11-06T08:20:18.116Z,79
2016-11-06T08:21:21.707Z,79
2016-11-06T08:22:25.253Z,79
2016-11-06T08:23:28.780Z,79
2016-11-06T08:24:32.324Z,79
2016-11-06T08:25:35.932Z,79
2016-11-06T08:26:39.478Z,78
2016-11-06T08:27:43.017Z,78
2016-11-06T08:28:46.553Z,79
2016-11-06T08:29:50.090Z,78
2016-11-06T08:30:53.695Z,79
2016-11-06T08:31:57.243Z,78
2016-11-06T08:33:00.786Z,78
2016-11-06T08:34:04.323Z,78
2016-11-06T08:35:07.873Z,78
2016-11-06T08:36:11.410Z,78
2016-11-06T08:37:14.947Z,78
2016-11-06T08:38:18.480Z,78
2016-11-06T08:39:22.024Z,78
2016-11-06T08:40:25.572Z,78
2016-11-06T08:41:29.110Z,78
2016-11-06T08:42:32.653Z,78
2016-11-06T08:43:36.193Z,78
2016-11-06T08:44:39.731Z,78
2016-11-06T08:45:43.271Z,78
2016-11-06T08:46:46.817Z,78
2016-11-06T08:47:50.362Z,78
2016-11-06T08:48:53.897Z,78
2016-11-06T08:49:57.435Z,77
2016-11-06T08:51:00.976Z,77
2016-11-06T08:52:04.524Z,77
2016-11-06T08:53:08.057Z,77
2016-11-06T08:54:11.588Z,77
2016-11-06T08:55:15.125Z,77
2016-11-06T08:56:18.673Z,77
2016-11-06T08:57:22.206Z,77
2016-11-06T08:58:25.741Z,77
2016-11-06T08:59:29.284Z,76
2016-11-06T09:00:32.834Z,76
2016-11-06T09:01:36.364Z,76
2016-11-06T09:02:39.909Z,76
2016-11-06T09:03:43.440Z,76
2016-11-06T09:04:46.979Z,76
2016-11-06T09:05:50.525Z,76
2016-11-06T09:06:54.066Z,76
2016-11-06T09:07:57.603Z,76
2016-11-06T09:09:01.146Z,76
2016-11-06T09:10:04.682Z,75
2016-11-06T09:11:08.228Z,75
2016-11-06T09:12:11.762Z,75
2016-11-06T09:13:15.302Z,75
2016-11-06T09:14:18.842Z,75
2016-11-06T09:15:22.373Z,75
2016-11-06T09:16:25.925Z,75
2016-11-06T09:17:29.490Z,75
2016-11-06T09:18:33.011Z,75
2016-11-06T09:19:36.542Z,75
2016-11-06T09:20:40.087Z,75
2016-11-06T09:21:43.626Z,75
2016-11-06T09:22:47.158Z,75
2016-11-06T09:23:50.689Z,75
2016-11-06T09:24:54.236Z,75
2016-11-06T09:25:57.783Z,75
2016-11-06T09:27:01.326Z,75
2016-11-06T09:28:04.861Z,75
2016-11-06T09:29:08.398Z,75
2016-11-06T09:30:11.934Z,75
2016-11-06T09:31:15.480Z,75
2016-11-06T09:32:19.020Z,75
2016-11-06T09:33:22.548Z,75
2016-11-06T09:34:26.085Z,75
2016-11-06T09:35:29.622Z,75
2016-11-06T09:36:33.164Z,75
2016-11-06T09:37:36.707Z,75
2016-11-06T09:38:40.240Z,75
2016-11-06T09:39:43.779Z,75
2016-11-06T09:40:47.316Z,75
2016-11-06T09:41:50.858Z,75
2016-11-06T09:42:54.395Z,75
2016-11-06T09:43:57.931Z,75
2016-11-06T09:45:01.478Z,75
2016-11-06T09:46:05.021Z,75
2016-11-06T09:47:08.562Z,75
2016-11-06T09:48:12.091Z,75
2016-11-06T09:49:15.627Z,75
2016-11-06T09:50:19.167Z,75
2016-11-06T09:51:22.716Z,75
2016-11-06T09:52:26.256Z,75
2016-11-06T09:53:29.798Z,75
2016-11-06T09:54:33.335Z,75
2016-11-06T09:55:36.875Z,75
2016-11-06T09:56:40.426Z,75
2016-11-06T09:57:43.963Z,74
2016-11-06T09:58:47.502Z,74
2016-11-06T09:59:51.043Z,74
2016-11-06T10:00:54.580Z,75
2016-11-06T10:01:58.118Z,74
2016-11-06T10:03:01.659Z,74
2016-11-06T10:04:05.195Z,74
2016-11-06T10:05:08.733Z,74
2016-11-06T10:06:12.274Z,74
2016-11-06T10:07:15.820Z,75
2016-11-06T10:08:19.361Z,75
2016-11-06T10:09:22.898Z,75
2016-11-06T10:10:26.437Z,75
2016-11-06T10:11:29.982Z,75
2016-11-06T10:12:33.529Z,75
2016-11-06T10:13:37.069Z,75
2016-11-06T10:14:40.605Z,75
2016-11-06T10:15:44.151Z,75
2016-11-06T10:16:47.696Z,75
2016-11-06T10:17:51.227Z,75
2016-11-06T10:18:54.771Z,75
2016-11-06T10:19:58.308Z,75
2016-11-06T10:21:01.859Z,75
2016-11-06T10:22:05.389Z,75
2016-11-06T10:23:08.931Z,75
2016-11-06T10:24:12.473Z,75
2016-11-06T10:25:16.020Z,75
2016-11-06T10:26:19.557Z,75
2016-11-06T10:27:23.101Z,75
2016-11-06T10:28:26.645Z,75
2016-11-06T10:29:30.179Z,75
2016-11-06T10:30:33.725Z,75
2016-11-06T10:31:37.265Z,75
2016-11-06T10:32:40.811Z,75
2016-11-06T10:33:44.351Z,75
2016-11-06T10:34:47.890Z,74
2016-11-06T10:35:51.437Z,74
2016-11-06T10:36:54.969Z,74
2016-11-06T10:37:58.530Z,74
2016-11-06T10:39:02.050Z,74
2016-11-06T10:40:05.585Z,74
2016-11-06T10:41:09.135Z,74
2016-11-06T10:42:12.678Z,73
2016-11-06T10:43:16.217Z,73
2016-11-06T10:44:19.751Z,73
2016-11-06T10:45:23.299Z,73
2016-11-06T10:46:26.841Z,73
2016-11-06T10:47:30.382Z,73
2016-11-06T10:48:33.921Z,72
2016-11-06T10:49:37.465Z,72
2016-11-06T10:50:41.006Z,72
2016-11-06T10:51:44.543Z,72
2016-11-06T10:52:48.087Z,72
2016-11-06T10:53:51.637Z,72
2016-11-06T10:54:55.176Z,72
2016-11-06T10:55:58.716Z,72
2016-11-06T10:57:02.261Z,71
2016-11-06T10:58:05.808Z,71
2016-11-06T10:59:09.352Z,71
2016-11-06T11:00:12.890Z,70
2016-11-06T11:01:16.441Z,70
2016-11-06T11:02:19.974Z,69
2016-11-06T11:03:23.514Z,69
2016-11-06T11:04:27.053Z,68
2016-11-06T11:05:30.590Z,68
2016-11-06T11:06:34.134Z,68
2016-11-06T11:07:37.674Z,67
2016-11-06T11:08:41.216Z,67
2016-11-06T11:09:44.765Z,67
2016-11-06T11:10:48.312Z,66
2016-11-06T11:11:51.850Z,66
2016-11-06T11:12:55.390Z,66
2016-11-06T11:13:58.935Z,66
2016-11-06T11:15:02.474Z,66
2016-11-06T11:16:06.016Z,66
2016-11-06T11:17:09.557Z,65
2016-11-06T11:18:13.100Z,65
2016-11-06T11:19:16.636Z,65
2016-11-06T11:20:20.182Z,65
2016-11-06T11:21:23.733Z,65
2016-11-06T11:22:27.271Z,65
2016-11-06T11:23:30.814Z,65
2016-11-06T11:24:34.358Z,65
2016-11-06T11:25:37.893Z,65
2016-11-06T11:26:41.432Z,65
2016-11-06T11:27:44.976Z,65
2016-11-06T11:28:48.521Z,65
2016-11-06T11:29:52.061Z,65
2016-11-06T11:30:55.605Z,65
2016-11-06T11:31:59.146Z,64
2016-11-06T11:33:02.687Z,64
2016-11-06T11:34:06.228Z,64
2016-11-06T11:35:09.766Z,64
2016-11-06T11:36:13.308Z,64
2016-11-06T11:37:16.847Z,64
2016-11-06T11:38:20.390Z,64
2016-11-06T11:39:23.927Z,64
2016-11-06T11:40:27.474Z,64
2016-11-06T11:41:31.019Z,64
2016-11-06T11:42:34.554Z,64
2016-11-06T11:43:38.095Z,64
2016-11-06T11:44:41.636Z,64
2016-11-06T11:45:45.187Z,64
2016-11-06T11:46:48.720Z,64
2016-11-06T11:47:52.262Z,64
2016-11-06T11:48:55.807Z,64
2016-11-06T11:49:59.359Z,64
2016-11-06T11:51:02.894Z,64
2016-11-06T11:52:06.440Z,63
2016-11-06T11:53:09.991Z,63
2016-11-06T11:54:13.528Z,63
2016-11-06T11:55:17.065Z,63
2016-11-06T11:56:20.610Z,63
2016-11-06T11:57:24.150Z,63
2016-11-06T11:58:27.687Z,63
2016-11-06T11:59:31.230Z,63
2016-11-06T12:00:34.770Z,63
2016-11-06T12:01:38.310Z,63
2016-11-06T12:02:41.854Z,62
2016-11-06T12:03:45.401Z,62
2016-11-06T12:04:48.929Z,62
2016-11-06T12:05:52.475Z,62
2016-11-06T12:06:56.017Z,62
2016-11-06T12:07:59.560Z,62
2016-11-06T12:09:03.091Z,62
2016-11-06T12:10:06.637Z,62
2016-11-06T12:11:10.179Z,62
2016-11-06T12:12:13.727Z,62
2016-11-06T12:13:17.253Z,62
2016-11-06T12:14:20.836Z,62
2016-11-06T12:15:24.379Z,62
2016-11-06T12:16:27.916Z,61
2016-11-06T12:17:31.462Z,61
2016-11-06T12:18:35.011Z,61
2016-11-06T12:19:38.552Z,61
2016-11-06T12:20:42.089Z,61
2016-11-06T12:21:45.633Z,61
2016-11-06T12:22:49.173Z,61
2016-11-06T12:23:52.720Z,61
2016-11-06T12:24:56.256Z,61
2016-11-06T12:25:59.801Z,61
2016-11-06T12:27:03.345Z,61
2016-11-06T12:28:06.976Z,61
2016-11-06T12:29:10.517Z,61
2016-11-06T12:30:14.054Z,62
2016-11-06T12:31:17.600Z,61
2016-11-06T12:32:21.138Z,62
2016-11-06T12:33:24.676Z,62
2016-11-06T12:34:28.225Z,62
2016-11-06T12:35:31.770Z,62
2016-11-06T12:36:35.307Z,62
2016-11-06T12:37:38.847Z,62
2016-11-06T12:38:42.392Z,62
2016-11-06T12:39:45.931Z,62
2016-11-06T12:40:49.466Z,61
2016-11-06T12:41:53.010Z,61
2016-11-06T12:42:56.551Z,61
2016-11-06T12:44:00.094Z,61
2016-11-06T12:45:03.633Z,61
2016-11-06T12:46:07.173Z,61
2016-11-06T12:47:10.709Z,61
2016-11-06T12:48:14.257Z,61
2016-11-06T12:49:17.799Z,61
2016-11-06T12:50:21.341Z,61
2016-11-06T12:51:24.876Z,61
2016-11-06T12:52:28.417Z,61
2016-11-06T12:53:31.963Z,61
2016-11-06T12:54:35.500Z,62
2016-11-06T12:55:39.043Z,61
2016-11-06T12:56:42.588Z,62
2016-11-06T12:57:46.132Z,61
2016-11-06T12:58:49.665Z,62
2016-11-06T12:59:53.206Z,62
2016-11-06T13:00:56.746Z,62
2016-11-06T13:02:00.294Z,62
2016-11-06T13:03:03.828Z,62
2016-11-06T13:04:07.370Z,62
2016-11-06T13:05:10.914Z,62
2016-11-06T13:06:14.453Z,62
2016-11-06T13:07:17.994Z,62
2016-11-06T13:08:21.537Z,63
2016-11-06T13:09:25.081Z,63
2016-11-06T13:10:28.622Z,63
2016-11-06T13:11:32.157Z,63
2016-11-06T13:12:35.703Z,63
2016-11-06T13:13:39.249Z,63
2016-11-06T13:14:42.804Z,63
2016-11-06T13:15:46.340Z,63
2016-11-06T13:16:49.887Z,63
2016-11-06T13:17:53.433Z,63
2016-11-06T13:18:56.968Z,63
2016-11-06T13:20:00.510Z,63
2016-11-06T13:21:04.052Z,63
2016-11-06T13:22:07.597Z,63
2016-11-06T13:23:11.142Z,63
2016-11-06T13:24:14.684Z,63
2016-11-06T13:25:18.226Z,63
2016-11-06T13:26:21.771Z,63
2016-11-06T13:27:25.310Z,63
2016-11-06T13:28:28.854Z,63
2016-11-06T13:29:32.394Z,63
2016-11-06T13:30:35.932Z,63
2016-11-06T13:31:39.470Z,63
2016-11-06T13:32:43.013Z,63
2016-11-06T13:33:46.557Z,63
2016-11-06T13:34:50.101Z,63
2016-11-06T13:35:53.640Z,63
2016-11-06T13:36:57.179Z,63
2016-11-06T13:38:00.718Z,63
2016-11-06T13:39:04.271Z,63
2016-11-06T13:40:07.811Z,63
2016-11-06T13:41:11.353Z,63
2016-11-06T13:42:14.894Z,63
2016-11-06T13:43:18.443Z,63
2016-11-06T13:44:21.989Z,63
2016-11-06T13:45:25.526Z,63
2016-11-06T13:46:29.077Z,63
2016-11-06T13:47:32.625Z,63
2016-11-06T13:48:36.175Z,63
2016-11-06T13:49:39.711Z,63
2016-11-06T13:50:43.255Z,63
2016-11-06T13:51:46.791Z,63
2016-11-06T13:52:50.340Z,63
2016-11-06T13:53:53.891Z,63
2016-11-06T13:54:57.439Z,63
2016-11-06T13:56:00.973Z,63
2016-11-06T13:57:04.510Z,63
2016-11-06T13:58:08.053Z,63
2016-11-06T13:59:11.602Z,63
2016-11-06T14:00:15.149Z,63
2016-11-06T14:01:18.684Z,63
2016-11-06T14:02:22.224Z,63
2016-11-06T14:03:25.769Z,63
2016-11-06T14:04:29.314Z,63
2016-11-06T14:05:32.853Z,63
2016-11-06T14:06:36.392Z,63
2016-11-06T14:07:39.938Z,63
2016-11-06T14:08:43.481Z,63
2016-11-06T14:09:47.032Z,63
2016-11-06T14:10:50.574Z,63
2016-11-06T14:11:54.111Z,63
2016-11-06T14:12:57.657Z,63
2016-11-06T14:14:01.205Z,63
2016-11-06T14:15:04.751Z,63
2016-11-06T14:16:08.284Z,63
2016-11-06T14:17:11.826Z,63
2016-11-06T14:18:15.366Z,63
2016-11-06T14:19:18.909Z,63
2016-11-06T14:20:22.449Z,63
2016-11-06T14:21:25.993Z,63
2016-11-06T14:22:29.537Z,63
2016-11-06T14:23:33.078Z,63
2016-11-06T14:24:36.620Z,63
2016-11-06T14:25:40.154Z,63
2016-11-06T14:26:43.698Z,63
2016-11-06T14:27:47.243Z,63
2016-11-06T14:28:50.785Z,63
2016-11-06T14:29:54.321Z,63
2016-11-06T14:30:57.869Z,63
2016-11-06T14:32:01.401Z,63
2016-11-06T14:33:04.942Z,63
2016-11-06T14:34:08.482Z,63
2016-11-06T18:44:59.757Z,65
2016-11-06T18:46:03.302Z,64
2016-11-06T18:47:06.840Z,64
2016-11-06T18:48:10.547Z,64
2016-11-06T18:49:14.086Z,64
2016-11-06T18:50:17.631Z,64
2016-11-06T18:51:21.169Z,64
2016-11-06T18:52:24.705Z,64
2016-11-06T18:53:28.240Z,64
2016-11-06T18:54:31.780Z,64
2016-11-06T18:55:35.324Z,64
2016-11-06T18:56:38.862Z,64
2016-11-06T18:57:42.403Z,64
2016-11-06T18:58:45.949Z,64
2016-11-06T18:59:49.491Z,64
2016-11-06T19:00:53.023Z,64
2016-11-06T19:01:56.565Z,64
2016-11-06T19:03:00.101Z,64
2016-11-06T19:04:03.649Z,64
2016-11-06T19:05:07.188Z,64
2016-11-06T19:06:10.727Z,64
2016-11-06T19:07:14.272Z,64
2016-11-06T19:08:17.808Z,64
2016-11-06T19:09:21.346Z,64
2016-11-06T19:10:24.880Z,64
2016-11-06T19:11:28.425Z,64
2016-11-06T19:12:31.962Z,64
2016-11-06T19:13:35.502Z,64
2016-11-06T19:14:39.049Z,64
2016-11-06T19:15:42.602Z,64